Latest Weather Observations for Gatton

IDQ60901

Issued at 10:11 pm EST Saturday 28 March 2015 (issued every 10 minutes, with the page automatically refreshed every 10 minutes)

About weather observations | Map of Brisbane area stations | Latest observations for Brisbane area | Other Formats
Station Details ID: 040082 Name: UNIVERSITY OF QUEENSLAND GATTON Lat: -27.54 Lon: 152.34 Height: 89.0 m
Data from the previous 72 hours. | See also: Recent months at Gatton
Date/Time
EST
Tmp

°C
App
Tmp
°C
Dew
Point
°C
Rel
Hum
%
Delta-T

°C
Wind Press
QNH
hPa
Press
MSL
hPa
Rain
since
9 am
mm
Dir
 
Spd
km/h
Gust
km/h
Spd
kts
Gust
kts
28/10:00pm 22.1 22.3 15.7 67 3.9 ESE 9 11 5 6 - - 0.0
28/09:30pm 22.5 23.0 15.6 65 4.2 ESE 7 11 4 6 - - 0.0
28/09:00pm 22.8 22.8 15.1 62 4.6 E 9 11 5 6 - - 0.0
28/08:30pm 23.1 22.7 15.2 61 4.7 ESE 11 15 6 8 - - 0.0
28/08:00pm 23.1 22.8 15.4 62 4.6 ESE 11 19 6 10 - - 0.0
28/07:30pm 22.9 22.2 15.5 63 4.5 ESE 13 17 7 9 - - 0.0
28/07:00pm 23.3 22.2 15.4 61 4.8 ESE 15 19 8 10 - - 0.0
28/06:30pm 24.1 23.3 16.1 61 4.9 E 15 19 8 10 - - 0.0
28/06:00pm 24.6 23.2 16.6 61 4.9 E 19 24 10 13 - - 0.0
28/05:30pm 25.6 23.4 17.0 59 5.4 ENE 24 30 13 16 - - 0.0
28/05:00pm 26.8 25.6 18.4 60 5.4 ENE 22 32 12 17 - - 0.0
28/04:30pm 27.7 26.8 19.0 59 5.6 E 22 32 12 17 - - 0.0
28/04:00pm 28.2 27.2 18.9 57 6.0 ENE 22 30 12 16 - - 0.0
28/03:30pm 28.5 27.8 19.4 57 5.9 ENE 22 32 12 17 - - 0.0
28/03:00pm 28.5 26.5 19.1 56 6.1 E 28 33 15 18 - - 0.0
28/02:30pm 29.4 29.5 20.0 57 6.2 E 19 26 10 14 - - 0.0
28/02:00pm 28.7 29.1 18.2 53 6.7 ESE 13 20 7 11 - - 0.0
28/01:30pm 28.6 31.5 18.1 53 6.7 CALM 0 6 0 3 - - 0.0
28/01:00pm 28.6 29.4 19.0 56 6.2 ENE 13 26 7 14 - - 0.0
28/12:30pm 29.1 30.6 18.8 53 6.7 ENE 9 17 5 9 - - 0.0
28/12:00pm 28.6 29.9 19.2 56 6.1 E 11 17 6 9 - - 0.0
28/11:30am 28.3 30.1 20.3 62 5.3 E 11 24 6 13 - - 0.0
28/11:00am 27.3 28.6 20.1 64 4.7 ENE 13 17 7 9 - - 0.0
28/10:30am 27.3 28.4 19.6 62 5.0 NE 13 20 7 11 - - 0.0
28/10:00am 26.9 28.1 20.0 66 4.5 NE 13 17 7 9 - - 0.0
28/09:30am 26.3 27.9 19.9 68 4.2 NE 11 17 6 9 - - 0.0
28/09:00am 25.0 26.8 19.6 72 3.5 SE 9 15 5 8 - - 0.0
28/08:30am 24.3 27.4 20.2 78 2.7 WNW 4 6 2 3 - - 0.0
28/08:00am 22.8 24.9 19.4 81 2.2 W 7 9 4 5 - - 0.0
28/07:30am 21.9 23.6 19.3 85 1.7 W 9 13 5 7 - - 0.0
28/07:00am 21.3 23.5 19.2 88 1.3 WSW 6 9 3 5 - - 0.0
28/06:30am 20.9 22.9 18.8 88 1.3 W 6 7 3 4 - - 0.0
28/06:00am 21.1 23.1 19.2 89 1.2 W 7 9 4 5 - - 0.0
28/05:30am 21.0 23.0 19.1 89 1.2 W 7 9 4 5 - - 0.0
28/05:00am 21.0 23.2 19.1 89 1.2 W 6 9 3 5 - - 0.0
28/04:30am 21.2 23.4 19.1 88 1.3 WSW 6 7 3 4 - - 0.0
28/04:00am 21.8 24.1 19.5 87 1.5 WSW 6 7 3 4 - - 0.0
28/03:30am 22.4 26.4 20.5 89 1.2 CALM 0 0 0 0 - - 0.0
28/03:00am 22.4 26.0 19.8 85 1.7 CALM 0 0 0 0 - - 0.0
28/02:30am 22.2 26.1 20.3 89 1.2 CALM 0 0 0 0 - - 0.0
28/02:00am 22.2 25.7 19.6 85 1.7 CALM 0 0 0 0 - - 0.0
28/01:30am 22.7 26.5 20.2 86 1.6 CALM 0 0 0 0 - - 0.0
28/01:00am 22.7 26.5 20.2 86 1.6 CALM 0 0 0 0 - - 0.0
28/12:30am 22.7 26.4 20.0 85 1.7 CALM 0 0 0 0 - - 0.0
28/12:00am 22.8 26.2 20.1 85 1.7 WSW 2 6 1 3 - - 0.0
 
Date/Time
EST
Tmp

°C
App
Tmp
°C
Dew
Point
°C
Rel
Hum
%
Delta-T

°C
Wind Press
QNH
hPa
Press
MSL
hPa
Rain
since
9 am
mm
Dir
 
Spd
km/h
Gust
km/h
Spd
kts
Gust
kts
27/11:30pm 22.9 26.7 20.1 84 1.8 CALM 0 0 0 0 - - 0.0
27/11:00pm 23.1 26.9 20.2 84 1.9 CALM 0 0 0 0 - - 0.0
27/10:30pm 23.0 25.5 19.8 82 2.1 S 6 7 3 4 - - 0.0
27/10:00pm 22.8 25.2 19.6 82 2.1 SSE 6 7 3 4 - - 0.0
27/09:30pm 22.9 25.2 19.9 83 1.9 SE 7 11 4 6 - - 0.0
27/09:00pm 23.5 25.0 19.8 80 2.4 ESE 11 13 6 7 - - 0.0
27/08:30pm 23.4 25.2 19.5 79 2.5 SE 9 13 5 7 - - 0.0
27/08:00pm 23.5 25.2 19.4 78 2.6 ESE 9 11 5 6 - - 0.0
27/07:30pm 24.4 26.0 19.9 76 2.9 SE 11 15 6 8 - - 0.0
27/07:00pm 25.6 26.2 20.2 72 3.5 ENE 17 22 9 12 - - 0.0
27/06:30pm 26.5 25.3 20.8 71 3.8 E 28 37 15 20 - - 0.0
27/06:26pm 26.7 25.5 20.8 70 3.9 E 28 37 15 20 - - 0.0
27/06:00pm 28.6 28.1 12.1 36 9.6 WNW 6 9 3 5 - - 0.0
27/05:30pm 29.6 29.3 13.4 37 9.7 W 7 11 4 6 - - 0.0
27/05:00pm 30.9 30.3 12.3 32 11.0 WNW 7 11 4 6 - - 0.0
27/04:30pm 32.4 30.1 10.4 26 12.7 WNW 13 17 7 9 - - 0.0
27/04:00pm 33.2 30.4 9.9 24 13.4 WSW 15 24 8 13 - - 0.0
27/03:30pm 32.4 30.2 9.2 24 13.1 W 11 17 6 9 - - 0.0
27/03:00pm 33.4 31.7 11.3 26 13.0 W 11 17 6 9 - - 0.0
27/02:30pm 33.0 31.2 10.9 26 12.9 WNW 11 19 6 10 - - 0.0
27/02:00pm 32.7 31.4 11.3 27 12.5 NW 9 17 5 9 - - 0.0
27/01:30pm 32.2 31.3 11.4 28 12.2 W 7 13 4 7 - - 0.0
27/01:00pm 31.4 30.6 11.7 29 11.6 NE 7 15 4 8 - - 0.0
27/12:30pm 30.8 30.2 11.7 31 11.2 NW 6 9 3 5 - - 0.0
27/12:00pm 30.3 30.6 14.4 38 9.7 N 6 9 3 5 - - 0.0
27/11:30am 29.1 30.5 17.3 49 7.5 NNE 6 13 3 7 - - 0.0
27/11:00am 28.6 30.6 17.8 52 6.9 NNW 4 9 2 5 - - 0.0
27/10:30am 27.6 28.5 16.6 51 6.9 W 7 11 4 6 - - 0.0
27/10:00am 27.2 27.6 16.2 51 6.8 S 9 13 5 7 - - 0.0
27/09:30am 26.3 25.4 12.7 43 7.9 S 9 13 5 7 - - 0.0
27/09:00am 25.6 23.6 11.4 41 8.1 SSW 13 19 7 10 - - 16.6
27/08:30am 23.9 24.1 15.7 60 5.0 SW 9 13 5 7 - - 16.6
27/08:00am 22.3 23.1 15.9 67 3.9 WSW 6 9 3 5 - - 16.6
27/07:30am 20.6 21.7 17.2 81 2.1 WSW 7 11 4 6 - - 16.6
27/07:00am 19.7 21.1 17.8 89 1.2 W 7 11 4 6 - - 16.6
27/06:30am 20.0 21.2 18.3 90 1.1 W 9 13 5 7 - - 16.6
27/06:00am 20.0 21.8 18.7 92 0.8 SW 7 11 4 6 - - 16.6
27/05:30am 21.0 23.7 20.3 96 0.5 WNW 6 9 3 5 - - 16.6
27/05:00am 21.3 24.5 20.6 96 0.5 NNW 4 9 2 5 - - 16.6
27/04:30am 21.6 25.9 21.1 97 0.3 CALM 0 0 0 0 - - 16.6
27/04:00am 21.6 24.7 21.1 97 0.3 NNW 6 7 3 4 - - 16.6
27/03:30am 21.3 24.0 20.6 96 0.5 N 7 9 4 5 - - 16.6
27/03:00am 21.6 25.8 20.9 96 0.5 CALM 0 0 0 0 - - 16.6
27/02:30am 21.8 25.3 21.1 96 0.5 WNW 4 9 2 5 - - 16.6
27/02:00am 21.7 24.8 21.0 96 0.5 W 6 7 3 4 - - 16.6
27/01:30am 21.6 25.7 20.8 95 0.5 CALM 0 0 0 0 - - 16.6
27/01:00am 21.9 25.5 21.2 96 0.5 SW 4 9 2 5 - - 16.6
27/12:30am 21.9 26.2 21.1 95 0.5 CALM 0 0 0 0 - - 16.6
27/12:00am 22.0 26.0 21.3 96 0.5 W 2 7 1 4 - - 16.6
 
Date/Time
EST
Tmp

°C
App
Tmp
°C
Dew
Point
°C
Rel
Hum
%
Delta-T

°C
Wind Press
QNH
hPa
Press
MSL
hPa
Rain
since
9 am
mm
Dir
 
Spd
km/h
Gust
km/h
Spd
kts
Gust
kts
26/11:30pm 22.1 26.4 21.1 94 0.7 CALM 0 0 0 0 - - 16.6
26/11:00pm 22.6 27.2 21.8 95 0.5 CALM 0 6 0 3 - - 16.6
26/10:30pm 22.4 25.6 21.6 95 0.5 NNE 7 9 4 5 - - 16.6
26/10:00pm 22.5 25.7 21.7 95 0.5 NE 7 11 4 6 - - 16.6
26/09:30pm 22.4 26.2 21.6 95 0.5 NE 4 7 2 4 - - 16.6
26/09:00pm 22.4 25.5 21.4 94 0.7 ENE 7 11 4 6 - - 16.6
26/08:30pm 22.6 27.0 21.4 93 0.8 CALM 0 0 0 0 - - 16.6
26/08:00pm 22.7 25.9 21.7 94 0.7 SE 7 9 4 5 - - 16.6
26/07:30pm 22.7 24.8 21.7 94 0.7 N 13 15 7 8 - - 16.6
26/07:00pm 22.7 25.6 21.7 94 0.7 ENE 9 11 5 6 - - 16.6
26/06:30pm 23.2 27.9 22.0 93 0.8 CALM 0 6 0 3 - - 16.6
26/06:00pm 23.3 26.8 22.1 93 0.8 S 7 11 4 6 - - 16.6
26/05:30pm 22.9 25.8 21.7 93 0.8 WNW 9 11 5 6 - - 16.6
26/05:00pm 22.1 24.0 19.8 87 1.5 NNW 9 15 5 8 - - 16.6
26/04:30pm 22.5 22.8 20.8 90 1.1 E 20 26 11 14 - - 16.4
26/04:03pm 24.3 23.3 21.2 83 2.0 WSW 28 48 15 26 - - 2.0
26/04:00pm 27.1 28.3 22.5 76 3.1 WSW 20 30 11 16 - - 1.0
26/03:30pm 30.2 31.8 20.7 56 6.3 E 13 17 7 9 - - 0.2
26/03:00pm 30.6 32.2 21.4 58 6.2 NE 15 19 8 10 - - 0.2
26/02:30pm 30.5 33.0 23.2 65 5.0 N 15 20 8 11 - - 0.2
26/02:00pm 29.2 33.4 24.1 74 3.5 N 9 15 5 8 - - 0.2
26/01:30pm 29.6 33.4 24.0 72 3.9 N 11 15 6 8 - - 0.2
26/01:00pm 30.5 33.2 22.1 61 5.7 NE 11 17 6 9 - - 0.2
26/12:30pm 31.9 35.0 22.9 59 6.2 NE 11 19 6 10 - - 0.2
26/12:00pm 30.5 33.0 22.4 62 5.5 NE 13 20 7 11 - - 0.2
26/11:30am 31.5 34.6 23.6 63 5.5 E 13 19 7 10 - - 0.2
26/11:00am 31.1 34.7 23.7 64 5.1 NE 11 17 6 9 - - 0.2
26/10:30am 29.3 32.0 22.8 68 4.4 NNE 13 19 7 10 - - 0.0
26/10:00am 28.1 31.1 22.6 72 3.7 NE 11 17 6 9 - - 0.0
26/09:30am 27.0 30.3 22.6 77 3.0 ENE 9 17 5 9 - - 0.0
26/09:00am 26.3 29.9 23.0 82 2.2 E 9 13 5 7 - - 0.2
26/08:30am 25.2 29.2 22.7 86 1.7 E 6 9 3 5 - - 0.2
26/08:00am 25.0 28.8 22.7 87 1.6 SE 7 9 4 5 - - 0.2
26/07:30am 24.7 28.5 22.8 89 1.3 SE 7 9 4 5 - - 0.2
26/07:00am 24.4 28.4 22.7 90 1.1 E 6 7 3 4 - - 0.2
26/06:30am 24.2 28.4 22.5 90 1.1 ESE 4 7 2 4 - - 0.2
26/06:00am 24.0 27.8 22.4 91 1.1 ESE 6 7 3 4 - - 0.2
26/05:30am 24.0 27.2 22.4 91 1.1 SE 9 11 5 6 - - 0.2
26/05:00am 24.0 27.6 22.4 91 1.1 SE 7 7 4 4 - - 0.2
26/04:30am 23.9 27.6 22.3 91 1.1 SE 6 9 3 5 - - 0.2
26/04:00am 24.0 27.6 22.4 91 1.1 SE 7 9 4 5 - - 0.2
26/03:30am 23.9 27.5 22.3 91 1.1 SE 7 11 4 6 - - 0.2
26/03:00am 24.1 27.7 22.4 90 1.1 E 7 9 4 5 - - 0.2
26/02:30am 24.3 29.2 22.4 89 1.3 CALM 0 6 0 3 - - 0.2
26/02:00am 24.5 27.6 22.2 87 1.5 SSE 9 13 5 7 - - 0.0
26/01:30am 24.9 28.4 22.2 85 1.8 SSE 7 13 4 7 - - 0.0
26/01:00am 24.7 27.4 22.2 86 1.7 SE 11 15 6 8 - - 0.0
26/12:30am 24.6 27.0 22.3 87 1.5 ESE 13 19 7 10 - - 0.0
26/12:00am 25.2 28.2 21.9 82 2.2 SE 9 13 5 7 - - 0.0
 
Date/Time
EST
Tmp

°C
App
Tmp
°C
Dew
Point
°C
Rel
Hum
%
Delta-T

°C
Wind Press
QNH
hPa
Press
MSL
hPa
Rain
since
9 am
mm
Dir
 
Spd
km/h
Gust
km/h
Spd
kts
Gust
kts
25/11:30pm 25.4 28.4 21.9 81 2.3 SE 9 13 5 7 - - 0.0
25/11:00pm 25.4 28.1 22.1 82 2.2 SE 11 15 6 8 - - 0.0
25/10:30pm 25.5 27.9 22.2 82 2.2 SE 13 20 7 11 - - 0.0

Latest Capital City Observations: Canberra | Sydney | Melbourne | Brisbane | Adelaide | Perth | Hobart | Darwin

Other Formats:

Comma delimited format used in spreadsheet applications
http://www.bom.gov.au/fwo/IDQ60901/IDQ60901.94562.axf

JavaScript Object Notation format (JSON) in row-major order
http://www.bom.gov.au/fwo/IDQ60901/IDQ60901.94562.json